Wilson Maas — 8PSZ — position and weather

sailwx.info

Track history (hours):
 
Tides and Currents Weather Stations Pressure Air Temp Water Temp Dewpoint Dewpoint Depression Visibility Wind Speed Wind Dir Waves Ship Positions

Wilson Maas

Last reported at 2017-Feb-28 16:33 UTC. Time now 2017-Feb-28 17:25 UTC.
Position N 57°57' E 007°44'.

Length 78 m; draft 3.4 m.

Type: Cargo ship. MMSI: 314217000.

Date/timePositionNaut miles runAvg speedWind from/ knotsBaromVisibWave heightAir tempDewpointWater temp
2017-Feb-28 16:33N 57°57' E 007°44'4 4.3
2017-Feb-28 15:33N 57°59' E 007°51'5 4.7
2017-Feb-28 14:33N 58°01' E 007°59'4 4.3
2017-Feb-28 13:33N 58°04' E 008°05'6 6.3
2017-Feb-28 12:33N 58°02' E 007°54'4 3.7
2017-Feb-28 11:31N 58°04' E 007°48'0 0.0
2017-Feb-28 10:31N 58°04' E 007°48'0 0.0
2017-Feb-28 09:31N 58°04' E 007°48'0 0.0
2017-Feb-28 08:31N 58°04' E 007°48'0 0.0
2017-Feb-28 07:31N 58°04' E 007°48'3 2.6
2017-Feb-28 06:33N 58°02' E 007°50'7 7.3
2017-Feb-28 05:33N 58°06' E 008°02'7 7.1
2017-Feb-28 04:33N 58°06' E 008°16'9 8.8
2017-Feb-28 03:33N 58°11' E 008°29'9 8.9
2017-Feb-28 02:33N 58°16' E 008°43'9 8.7
2017-Feb-28 01:33N 58°21' E 008°56'9 9.0
2017-Feb-28 00:33N 58°27' E 009°09'9 8.9
2017-Feb-27 23:33N 58°32' E 009°23'9 9.0
2017-Feb-27 22:33N 58°38' E 009°37'10 9.4
2017-Feb-27 21:33N 58°44' E 009°51'9 9.4
2017-Feb-27 20:33N 58°49' E 010°06'9 9.1
2017-Feb-27 19:33N 58°55' E 010°19'9 9.1
2017-Feb-27 18:33N 59°01' E 010°33'8 7.9
2017-Feb-27 17:33N 59°08' E 010°35'9 8.6
2017-Feb-27 16:33N 59°17' E 010°34'8 7.9
2017-Feb-27 15:31N 59°25' E 010°30'0 0.0
2017-Feb-27 14:31N 59°25' E 010°30'0 0.0
2017-Feb-27 13:31N 59°25' E 010°30'0 0.0
2017-Feb-27 12:28N 59°25' E 010°30'0 0.0
2017-Feb-27 11:31N 59°25' E 010°30'0 0.0
2017-Feb-27 10:31N 59°25' E 010°30'0 0.0
2017-Feb-27 09:31N 59°25' E 010°30'0 0.0
2017-Feb-27 08:28N 59°25' E 010°30'0 0.0
2017-Feb-27 07:31N 59°25' E 010°30'0 0.0
2017-Feb-27 06:31N 59°25' E 010°30'2 2.0
2017-Feb-27 05:33N 59°23' E 010°30'9 8.6
2017-Feb-27 04:33N 59°15' E 010°35'10 9.8
2017-Feb-27 03:33N 59°05' E 010°35'5 5.3
2017-Feb-27 02:34N 58°60' E 010°34'5 4.9
2017-Feb-27 01:34N 58°55' E 010°29'5 4.9
2017-Feb-27 00:33N 58°51' E 010°24'5 5.0
2017-Feb-26 23:33N 58°47' E 010°19'8 7.7
2017-Feb-26 22:33N 58°41' E 010°10'40210.3
2017-Feb-25 07:33N 52°52' E 004°17'1010.1
2017-Feb-25 06:34N 52°43' E 004°07'2110.6
2017-Feb-25 04:33N 52°24' E 003°53'1111.1
2017-Feb-25 03:33N 52°13' E 003°54'1110.8
2017-Feb-25 02:33N 52°03' E 003°59'1010.2
2017-Feb-25 01:33N 51°56' E 004°12'8 8.0
2017-Feb-25 00:33N 51°54' E 004°25'0 0.2
2017-Feb-24 23:31N 51°54' E 004°25'0 0.0
2017-Feb-24 22:28N 51°54' E 004°25'0 0.0
2017-Feb-24 21:31N 51°54' E 004°25'0 0.0
2017-Feb-24 20:31N 51°54' E 004°25'0 0.0
2017-Feb-24 19:31N 51°54' E 004°25'0 0.0
2017-Feb-24 18:31N 51°54' E 004°25'0 0.0
2017-Feb-24 17:31N 51°54' E 004°25'1 0.7
2017-Feb-24 16:33N 51°54' E 004°26'2 1.5
2017-Feb-24 15:32N 51°54' E 004°28'0 0.0
2017-Feb-24 14:32N 51°54' E 004°28'0 0.0
2017-Feb-24 13:32N 51°54' E 004°28'0 0.0
2017-Feb-24 12:32N 51°54' E 004°28'0 0.0
2017-Feb-24 11:32N 51°54' E 004°28'0 0.0
2017-Feb-24 10:32N 51°54' E 004°28'0 0.0
2017-Feb-24 09:32N 51°54' E 004°28'0 0.0
2017-Feb-24 08:32N 51°54' E 004°28'0 0.0
2017-Feb-24 07:32N 51°54' E 004°28'0 0.0
2017-Feb-24 06:32N 51°54' E 004°28'0 0.0
2017-Feb-24 05:32N 51°54' E 004°28'0 0.0
2017-Feb-24 04:31N 51°54' E 004°28'0 0.0
2017-Feb-24 03:32N 51°54' E 004°28'0 0.0
2017-Feb-24 02:32N 51°54' E 004°28'0 0.0
2017-Feb-24 01:32N 51°54' E 004°28'1 0.7
2017-Feb-24 00:33N 51°55' E 004°29'8 7.0
2017-Feb-23 23:28N 51°51' E 004°40'8 8.5
2017-Feb-23 22:33N 51°49' E 004°52'37 9.2
2017-Feb-23 18:33N 51°51' E 005°52'8 8.3
2017-Feb-23 17:33N 51°51' E 006°05'1010.1
2017-Feb-23 16:33N 51°46' E 006°20'10 9.0
2017-Feb-23 15:26N 51°40' E 006°32'8 7.9
2017-Feb-23 14:23N 51°34' E 006°41'6 7.8
2017-Feb-23 13:34N 51°28' E 006°43'1 1.0
2017-Feb-23 12:33N 51°27' E 006°45'0 0.0
2017-Feb-23 11:33N 51°27' E 006°45'0 0.0
2017-Feb-23 10:33N 51°27' E 006°45'0 0.0
2017-Feb-23 09:33N 51°27' E 006°45'0 0.0
2017-Feb-23 08:33N 51°27' E 006°45'0 0.0
2017-Feb-23 07:30N 51°27' E 006°45'0 0.0
2017-Feb-23 06:30N 51°27' E 006°45'0 0.0
2017-Feb-23 05:33N 51°27' E 006°45'0 0.0
2017-Feb-23 04:33N 51°27' E 006°45'0 0.0
2017-Feb-23 03:33N 51°27' E 006°45'0 0.0
2017-Feb-23 02:33N 51°27' E 006°45'0 0.0
2017-Feb-23 01:33N 51°27' E 006°45'0 0.0
2017-Feb-23 00:30N 51°27' E 006°45'0 0.0
2017-Feb-22 23:33N 51°27' E 006°45'0 0.0
2017-Feb-22 22:33N 51°27' E 006°45'0 0.0
2017-Feb-22 21:33N 51°27' E 006°45'0 0.0
2017-Feb-22 20:33N 51°27' E 006°45'0 0.0
2017-Feb-22 19:33N 51°27' E 006°45'0 0.0
2017-Feb-22 18:30N 51°27' E 006°45'0 0.0
2017-Feb-22 17:33N 51°27' E 006°45'0 0.0
2017-Feb-22 16:33N 51°27' E 006°45'0 0.0
2017-Feb-22 15:33N 51°27' E 006°45'0 0.0
2017-Feb-22 14:33N 51°27' E 006°45'0 0.0
2017-Feb-22 13:33N 51°27' E 006°45'0 0.0
2017-Feb-22 12:33N 51°27' E 006°45'0 0.1
2017-Feb-22 11:33N 51°27' E 006°45'0 0.0
2017-Feb-22 10:30N 51°27' E 006°45'0 0.0
2017-Feb-22 09:27N 51°27' E 006°45'0 0.0
2017-Feb-22 08:33N 51°27' E 006°45'0 0.0
2017-Feb-22 07:30N 51°27' E 006°45'0 0.0
2017-Feb-22 06:33N 51°27' E 006°45'0 0.0
2017-Feb-22 05:33N 51°27' E 006°45'0 0.0
2017-Feb-22 04:30N 51°27' E 006°45'3 3.3
2017-Feb-22 03:33N 51°29' E 006°41'19 2.7
2017-Feb-21 20:28N 51°45' E 006°25'6 6.7
2017-Feb-21 19:33N 51°49' E 006°17'7 7.1
2017-Feb-21 18:33N 51°51' E 006°06'6 6.1
2017-Feb-21 17:34N 51°52' E 005°56'36 7.1
2017-Feb-21 12:26N 51°49' E 004°58'910.7
2017-Feb-21 11:34N 51°49' E 004°42'10 9.6
2017-Feb-21 10:33N 51°55' E 004°29'1 0.7
2017-Feb-21 09:32N 51°54' E 004°28'0 0.3
2017-Feb-21 08:33N 51°54' E 004°28'10 9.7
2017-Feb-21 07:33N 51°56' E 004°12'1010.1
2017-Feb-21 06:33N 52°00' E 003°58'10 9.6
2017-Feb-21 05:33N 52°02' E 003°42'87 9.2
2017-Feb-20 20:06N 52°51' E 001°45'5 9.2
2017-Feb-20 19:33N 52°53' E 001°38'9 9.4
2017-Feb-20 18:33N 52°58' E 001°24'10 9.4
2017-Feb-20 17:32N 53°01' E 001°09'51 3.2
2017-Feb-20 01:20N 53°35' E 000°04'912.3
2017-Feb-20 00:33N 53°39' W 000°10'8 7.5
2017-Feb-19 23:32N 53°43' W 000°22'0 0.0
2017-Feb-19 22:26N 53°43' W 000°22'0 0.0
2017-Feb-19 21:32N 53°43' W 000°22'0 0.0
2017-Feb-19 20:29N 53°43' W 000°22'0 0.0
2017-Feb-19 19:29N 53°43' W 000°22'0 0.0
2017-Feb-19 18:23N 53°43' W 000°22'0 0.0
2017-Feb-19 17:32N 53°43' W 000°22'0 0.0
2017-Feb-19 16:20N 53°43' W 000°22'0 0.0
2017-Feb-19 15:32N 53°43' W 000°22'0 0.0
2017-Feb-19 14:26N 53°43' W 000°22'0 0.0
2017-Feb-19 13:20N 53°43' W 000°22'0 0.0
2017-Feb-19 12:32N 53°43' W 000°22'0 0.0
2017-Feb-19 11:32N 53°43' W 000°22'0 0.0
2017-Feb-19 10:32N 53°43' W 000°22'0 0.0
2017-Feb-19 09:20N 53°43' W 000°22'0 0.0
2017-Feb-19 08:32N 53°43' W 000°22'0 0.0
2017-Feb-19 07:32N 53°43' W 000°22'0 0.0
2017-Feb-19 06:32N 53°43' W 000°22'0 0.0
2017-Feb-19 05:32N 53°43' W 000°22'0 0.0
2017-Feb-19 04:32N 53°43' W 000°22'0 0.0
2017-Feb-19 03:29N 53°43' W 000°22'0 0.0
2017-Feb-19 02:29N 53°43' W 000°22'0 0.0
2017-Feb-19 01:32N 53°43' W 000°22'0 0.0
2017-Feb-19 00:32N 53°43' W 000°22'0 0.0
2017-Feb-18 23:27N 53°43' W 000°22'3 3.1
2017-Feb-18 22:33N 53°44' W 000°18'1010.0
2017-Feb-18 21:33N 53°37' W 000°05'  
Track history (hours):
 
Tides and Currents Weather Stations Pressure Air Temp Water Temp Dewpoint Dewpoint Depression Visibility Wind Speed Wind Dir Waves Ship Positions

Wilson Maas

Last reported at 2017-Feb-28 16:33 UTC. Time now 2017-Feb-28 17:25 UTC.
Position N 57°57' E 007°44'.

Length 78 m; draft 3.4 m.

Type: Cargo ship. MMSI: 314217000.

Date/timePositionNaut miles runAvg speedWind from/ knotsBaromVisibWave heightAir tempDewpointWater temp
2017-Feb-28 16:33N 57°57' E 007°44'4 4.3
2017-Feb-28 15:33N 57°59' E 007°51'5 4.7
2017-Feb-28 14:33N 58°01' E 007°59'4 4.3
2017-Feb-28 13:33N 58°04' E 008°05'6 6.3
2017-Feb-28 12:33N 58°02' E 007°54'4 3.7
2017-Feb-28 11:31N 58°04' E 007°48'0 0.0
2017-Feb-28 10:31N 58°04' E 007°48'0 0.0
2017-Feb-28 09:31N 58°04' E 007°48'0 0.0
2017-Feb-28 08:31N 58°04' E 007°48'0 0.0
2017-Feb-28 07:31N 58°04' E 007°48'3 2.6
2017-Feb-28 06:33N 58°02' E 007°50'7 7.3
2017-Feb-28 05:33N 58°06' E 008°02'7 7.1
2017-Feb-28 04:33N 58°06' E 008°16'9 8.8
2017-Feb-28 03:33N 58°11' E 008°29'9 8.9
2017-Feb-28 02:33N 58°16' E 008°43'9 8.7
2017-Feb-28 01:33N 58°21' E 008°56'9 9.0
2017-Feb-28 00:33N 58°27' E 009°09'9 8.9
2017-Feb-27 23:33N 58°32' E 009°23'9 9.0
2017-Feb-27 22:33N 58°38' E 009°37'10 9.4
2017-Feb-27 21:33N 58°44' E 009°51'9 9.4
2017-Feb-27 20:33N 58°49' E 010°06'9 9.1
2017-Feb-27 19:33N 58°55' E 010°19'9 9.1
2017-Feb-27 18:33N 59°01' E 010°33'8 7.9
2017-Feb-27 17:33N 59°08' E 010°35'9 8.6
2017-Feb-27 16:33N 59°17' E 010°34'8 7.9
2017-Feb-27 15:31N 59°25' E 010°30'0 0.0
2017-Feb-27 14:31N 59°25' E 010°30'0 0.0
2017-Feb-27 13:31N 59°25' E 010°30'0 0.0
2017-Feb-27 12:28N 59°25' E 010°30'0 0.0
2017-Feb-27 11:31N 59°25' E 010°30'0 0.0
2017-Feb-27 10:31N 59°25' E 010°30'0 0.0
2017-Feb-27 09:31N 59°25' E 010°30'0 0.0
2017-Feb-27 08:28N 59°25' E 010°30'0 0.0
2017-Feb-27 07:31N 59°25' E 010°30'0 0.0
2017-Feb-27 06:31N 59°25' E 010°30'2 2.0
2017-Feb-27 05:33N 59°23' E 010°30'9 8.6
2017-Feb-27 04:33N 59°15' E 010°35'10 9.8
2017-Feb-27 03:33N 59°05' E 010°35'5 5.3
2017-Feb-27 02:34N 58°60' E 010°34'5 4.9
2017-Feb-27 01:34N 58°55' E 010°29'5 4.9
2017-Feb-27 00:33N 58°51' E 010°24'5 5.0
2017-Feb-26 23:33N 58°47' E 010°19'8 7.7
2017-Feb-26 22:33N 58°41' E 010°10'40210.3
2017-Feb-25 07:33N 52°52' E 004°17'1010.1
2017-Feb-25 06:34N 52°43' E 004°07'2110.6
2017-Feb-25 04:33N 52°24' E 003°53'1111.1
2017-Feb-25 03:33N 52°13' E 003°54'1110.8
2017-Feb-25 02:33N 52°03' E 003°59'1010.2
2017-Feb-25 01:33N 51°56' E 004°12'8 8.0
2017-Feb-25 00:33N 51°54' E 004°25'0 0.2
2017-Feb-24 23:31N 51°54' E 004°25'0 0.0
2017-Feb-24 22:28N 51°54' E 004°25'0 0.0
2017-Feb-24 21:31N 51°54' E 004°25'0 0.0
2017-Feb-24 20:31N 51°54' E 004°25'0 0.0
2017-Feb-24 19:31N 51°54' E 004°25'0 0.0
2017-Feb-24 18:31N 51°54' E 004°25'0 0.0
2017-Feb-24 17:31N 51°54' E 004°25'1 0.7
2017-Feb-24 16:33N 51°54' E 004°26'2 1.5
2017-Feb-24 15:32N 51°54' E 004°28'0 0.0
2017-Feb-24 14:32N 51°54' E 004°28'0 0.0
2017-Feb-24 13:32N 51°54' E 004°28'0 0.0
2017-Feb-24 12:32N 51°54' E 004°28'0 0.0
2017-Feb-24 11:32N 51°54' E 004°28'0 0.0
2017-Feb-24 10:32N 51°54' E 004°28'0 0.0
2017-Feb-24 09:32N 51°54' E 004°28'0 0.0
2017-Feb-24 08:32N 51°54' E 004°28'0 0.0
2017-Feb-24 07:32N 51°54' E 004°28'0 0.0
2017-Feb-24 06:32N 51°54' E 004°28'0 0.0
2017-Feb-24 05:32N 51°54' E 004°28'0 0.0
2017-Feb-24 04:31N 51°54' E 004°28'0 0.0
2017-Feb-24 03:32N 51°54' E 004°28'0 0.0
2017-Feb-24 02:32N 51°54' E 004°28'0 0.0
2017-Feb-24 01:32N 51°54' E 004°28'1 0.7
2017-Feb-24 00:33N 51°55' E 004°29'8 7.0
2017-Feb-23 23:28N 51°51' E 004°40'8 8.5
2017-Feb-23 22:33N 51°49' E 004°52'37 9.2
2017-Feb-23 18:33N 51°51' E 005°52'8 8.3
2017-Feb-23 17:33N 51°51' E 006°05'1010.1
2017-Feb-23 16:33N 51°46' E 006°20'10 9.0
2017-Feb-23 15:26N 51°40' E 006°32'8 7.9
2017-Feb-23 14:23N 51°34' E 006°41'6 7.8
2017-Feb-23 13:34N 51°28' E 006°43'1 1.0
2017-Feb-23 12:33N 51°27' E 006°45'0 0.0
2017-Feb-23 11:33N 51°27' E 006°45'0 0.0
2017-Feb-23 10:33N 51°27' E 006°45'0 0.0
2017-Feb-23 09:33N 51°27' E 006°45'0 0.0
2017-Feb-23 08:33N 51°27' E 006°45'0 0.0
2017-Feb-23 07:30N 51°27' E 006°45'0 0.0
2017-Feb-23 06:30N 51°27' E 006°45'0 0.0
2017-Feb-23 05:33N 51°27' E 006°45'0 0.0
2017-Feb-23 04:33N 51°27' E 006°45'0 0.0
2017-Feb-23 03:33N 51°27' E 006°45'0 0.0
2017-Feb-23 02:33N 51°27' E 006°45'0 0.0
2017-Feb-23 01:33N 51°27' E 006°45'0 0.0
2017-Feb-23 00:30N 51°27' E 006°45'0 0.0
2017-Feb-22 23:33N 51°27' E 006°45'0 0.0
2017-Feb-22 22:33N 51°27' E 006°45'0 0.0
2017-Feb-22 21:33N 51°27' E 006°45'0 0.0
2017-Feb-22 20:33N 51°27' E 006°45'0 0.0
2017-Feb-22 19:33N 51°27' E 006°45'0 0.0
2017-Feb-22 18:30N 51°27' E 006°45'0 0.0
2017-Feb-22 17:33N 51°27' E 006°45'0 0.0
2017-Feb-22 16:33N 51°27' E 006°45'0 0.0
2017-Feb-22 15:33N 51°27' E 006°45'0 0.0
2017-Feb-22 14:33N 51°27' E 006°45'0 0.0
2017-Feb-22 13:33N 51°27' E 006°45'0 0.0
2017-Feb-22 12:33N 51°27' E 006°45'0 0.1
2017-Feb-22 11:33N 51°27' E 006°45'0 0.0
2017-Feb-22 10:30N 51°27' E 006°45'0 0.0
2017-Feb-22 09:27N 51°27' E 006°45'0 0.0
2017-Feb-22 08:33N 51°27' E 006°45'0 0.0
2017-Feb-22 07:30N 51°27' E 006°45'0 0.0
2017-Feb-22 06:33N 51°27' E 006°45'0 0.0
2017-Feb-22 05:33N 51°27' E 006°45'0 0.0
2017-Feb-22 04:30N 51°27' E 006°45'3 3.3
2017-Feb-22 03:33N 51°29' E 006°41'19 2.7
2017-Feb-21 20:28N 51°45' E 006°25'6 6.7
2017-Feb-21 19:33N 51°49' E 006°17'7 7.1
2017-Feb-21 18:33N 51°51' E 006°06'6 6.1
2017-Feb-21 17:34N 51°52' E 005°56'36 7.1
2017-Feb-21 12:26N 51°49' E 004°58'910.7
2017-Feb-21 11:34N 51°49' E 004°42'10 9.6
2017-Feb-21 10:33N 51°55' E 004°29'1 0.7
2017-Feb-21 09:32N 51°54' E 004°28'0 0.3
2017-Feb-21 08:33N 51°54' E 004°28'10 9.7
2017-Feb-21 07:33N 51°56' E 004°12'1010.1
2017-Feb-21 06:33N 52°00' E 003°58'10 9.6
2017-Feb-21 05:33N 52°02' E 003°42'87 9.2
2017-Feb-20 20:06N 52°51' E 001°45'5 9.2
2017-Feb-20 19:33N 52°53' E 001°38'9 9.4
2017-Feb-20 18:33N 52°58' E 001°24'10 9.4
2017-Feb-20 17:32N 53°01' E 001°09'51 3.2
2017-Feb-20 01:20N 53°35' E 000°04'912.3
2017-Feb-20 00:33N 53°39' W 000°10'8 7.5
2017-Feb-19 23:32N 53°43' W 000°22'0 0.0
2017-Feb-19 22:26N 53°43' W 000°22'0 0.0
2017-Feb-19 21:32N 53°43' W 000°22'0 0.0
2017-Feb-19 20:29N 53°43' W 000°22'0 0.0
2017-Feb-19 19:29N 53°43' W 000°22'0 0.0
2017-Feb-19 18:23N 53°43' W 000°22'0 0.0
2017-Feb-19 17:32N 53°43' W 000°22'0 0.0
2017-Feb-19 16:20N 53°43' W 000°22'0 0.0
2017-Feb-19 15:32N 53°43' W 000°22'0 0.0
2017-Feb-19 14:26N 53°43' W 000°22'0 0.0
2017-Feb-19 13:20N 53°43' W 000°22'0 0.0
2017-Feb-19 12:32N 53°43' W 000°22'0 0.0
2017-Feb-19 11:32N 53°43' W 000°22'0 0.0
2017-Feb-19 10:32N 53°43' W 000°22'0 0.0
2017-Feb-19 09:20N 53°43' W 000°22'0 0.0
2017-Feb-19 08:32N 53°43' W 000°22'0 0.0
2017-Feb-19 07:32N 53°43' W 000°22'0 0.0
2017-Feb-19 06:32N 53°43' W 000°22'0 0.0
2017-Feb-19 05:32N 53°43' W 000°22'0 0.0
2017-Feb-19 04:32N 53°43' W 000°22'0 0.0
2017-Feb-19 03:29N 53°43' W 000°22'0 0.0
2017-Feb-19 02:29N 53°43' W 000°22'0 0.0
2017-Feb-19 01:32N 53°43' W 000°22'0 0.0
2017-Feb-19 00:32N 53°43' W 000°22'0 0.0
2017-Feb-18 23:27N 53°43' W 000°22'3 3.1
2017-Feb-18 22:33N 53°44' W 000°18'1010.0
2017-Feb-18 21:33N 53°37' W 000°05'  

Dump ship's entire track history